createdAt,value
2022-12-28T00:00:54.646Z,1007.58
2022-12-28T00:01:54.715Z,1007.55
2022-12-28T00:03:01.883Z,1007.62
2022-12-28T00:03:54.604Z,1007.55
2022-12-28T00:04:54.598Z,1007.55
2022-12-28T00:05:54.582Z,1007.43
2022-12-28T00:06:54.592Z,1007.39
2022-12-28T00:07:54.582Z,1007.34
2022-12-28T00:08:54.547Z,1007.36
2022-12-28T00:09:54.531Z,1007.35
2022-12-28T00:11:08.799Z,1007.37
2022-12-28T00:11:55.521Z,1007.30
2022-12-28T00:12:54.492Z,1007.25
2022-12-28T00:13:54.470Z,1007.24
2022-12-28T00:14:54.461Z,1007.18
2022-12-28T00:15:54.477Z,1007.19
2022-12-28T00:16:54.463Z,1007.17
2022-12-28T00:17:54.427Z,1007.18
2022-12-28T00:18:54.411Z,1007.17
2022-12-28T00:19:54.442Z,1007.10
2022-12-28T00:20:54.371Z,1007.12
2022-12-28T00:21:54.386Z,1007.06
2022-12-28T00:22:54.374Z,1007.06
2022-12-28T00:23:54.350Z,1007.04
2022-12-28T00:24:54.332Z,1007.01
2022-12-28T00:25:54.326Z,1006.99
2022-12-28T00:26:54.300Z,1006.99
2022-12-28T00:27:54.311Z,1006.99
2022-12-28T00:28:59.781Z,1006.96
2022-12-28T00:29:55.261Z,1006.88
2022-12-28T00:30:54.250Z,1006.86
2022-12-28T00:31:54.379Z,1006.86
2022-12-28T00:32:54.240Z,1006.85
2022-12-28T00:33:54.224Z,1006.82
2022-12-28T00:34:54.210Z,1006.80
2022-12-28T00:35:54.199Z,1006.73
2022-12-28T00:37:10.586Z,1006.70
2022-12-28T00:37:55.182Z,1006.64
2022-12-28T00:38:54.151Z,1006.69
2022-12-28T00:39:54.133Z,1006.63
2022-12-28T00:40:54.120Z,1006.57
2022-12-28T00:41:54.119Z,1006.51
2022-12-28T00:42:54.111Z,1006.50
2022-12-28T00:43:54.155Z,1006.53
2022-12-28T00:44:54.071Z,1006.49
2022-12-28T00:45:54.086Z,1006.48
2022-12-28T00:46:54.060Z,1006.44
2022-12-28T00:47:54.063Z,1006.35
2022-12-28T00:48:54.020Z,1006.35
2022-12-28T00:49:54.017Z,1006.33
2022-12-28T00:50:53.994Z,1006.30
2022-12-28T00:51:54.025Z,1006.29
2022-12-28T00:52:53.991Z,1006.24
2022-12-28T00:53:53.963Z,1006.27
2022-12-28T00:54:53.940Z,1006.20
2022-12-28T00:55:53.940Z,1006.18
2022-12-28T00:56:53.910Z,1006.14
2022-12-28T00:57:53.924Z,1006.19
2022-12-28T00:58:53.890Z,1006.21
2022-12-28T00:59:53.870Z,1006.14
2022-12-28T01:00:53.899Z,1006.15
2022-12-28T01:01:54.046Z,1006.11
2022-12-28T01:02:53.948Z,1006.13
2022-12-28T01:03:53.820Z,1006.10
2022-12-28T01:04:53.808Z,1006.08
2022-12-28T01:05:53.808Z,1006.09
2022-12-28T01:06:53.783Z,1006.10
2022-12-28T01:07:53.791Z,1006.08
2022-12-28T01:08:53.760Z,1006.12
2022-12-28T01:09:53.761Z,1006.12
2022-12-28T01:10:53.741Z,1006.12
2022-12-28T01:11:53.719Z,1006.12
2022-12-28T01:12:53.734Z,1006.06
2022-12-28T01:13:53.691Z,1006.08
2022-12-28T01:14:53.681Z,1006.03
2022-12-28T01:15:53.666Z,1006.03
2022-12-28T01:16:53.695Z,1006.07
2022-12-28T01:17:53.658Z,1006.03
2022-12-28T01:18:53.638Z,1005.96
2022-12-28T01:19:54.114Z,1005.97
2022-12-28T01:20:53.598Z,1005.98
2022-12-28T01:21:53.605Z,1006.09
2022-12-28T01:22:53.588Z,1006.13
2022-12-28T01:23:53.570Z,1006.08
2022-12-28T01:24:53.555Z,1006.13
2022-12-28T01:25:53.540Z,1006.12
2022-12-28T01:26:53.550Z,1006.10
2022-12-28T01:27:53.551Z,1006.14
2022-12-28T01:28:53.497Z,1006.14
2022-12-28T01:29:53.494Z,1006.20
2022-12-28T01:30:53.467Z,1006.28
2022-12-28T01:31:53.516Z,1006.26
2022-12-28T01:32:53.447Z,1006.24
2022-12-28T01:33:53.437Z,1006.16
2022-12-28T01:34:53.420Z,1006.14
2022-12-28T01:35:53.419Z,1006.18
2022-12-28T01:36:53.397Z,1006.17
2022-12-28T01:37:53.406Z,1006.15
2022-12-28T01:38:53.360Z,1006.17
2022-12-28T01:39:53.360Z,1006.12
2022-12-28T01:40:53.338Z,1006.05
2022-12-28T01:41:53.346Z,1006.10
2022-12-28T01:42:53.338Z,1006.10
2022-12-28T01:43:53.309Z,1006.10
2022-12-28T01:44:53.298Z,1006.10
2022-12-28T01:45:53.307Z,1006.07
2022-12-28T01:46:53.266Z,1006.03
2022-12-28T01:47:53.264Z,1006.01
2022-12-28T01:48:53.234Z,1006.02
2022-12-28T01:49:53.228Z,1006.01
2022-12-28T01:50:53.215Z,1006.04
2022-12-28T01:51:53.208Z,1006.00
2022-12-28T01:52:53.197Z,1005.99
2022-12-28T01:53:53.182Z,1005.98
2022-12-28T01:54:53.156Z,1005.98
2022-12-28T01:55:53.147Z,1006.04
2022-12-28T01:56:53.137Z,1006.02
2022-12-28T01:57:53.146Z,1005.97
2022-12-28T01:58:53.105Z,1006.02
2022-12-28T01:59:53.103Z,1005.96
2022-12-28T02:00:53.117Z,1005.91
2022-12-28T02:01:53.164Z,1005.86
2022-12-28T02:02:53.105Z,1005.88
2022-12-28T02:03:53.046Z,1005.86
2022-12-28T02:04:53.027Z,1005.87
2022-12-28T02:05:53.068Z,1005.83
2022-12-28T02:06:53.017Z,1005.81
2022-12-28T02:07:52.987Z,1005.81
2022-12-28T02:08:52.985Z,1005.77
2022-12-28T02:10:42.410Z,1005.76
2022-12-28T02:10:53.946Z,1005.68
2022-12-28T02:11:52.936Z,1005.65
2022-12-28T02:12:52.958Z,1005.61
2022-12-28T02:13:52.934Z,1005.64
2022-12-28T02:14:52.936Z,1005.56
2022-12-28T02:15:52.897Z,1005.49
2022-12-28T02:16:52.939Z,1005.42
2022-12-28T02:17:52.858Z,1005.37
2022-12-28T02:18:52.861Z,1005.38
2022-12-28T02:19:52.827Z,1005.47
2022-12-28T02:20:52.827Z,1005.37
2022-12-28T02:21:52.809Z,1005.36
2022-12-28T02:22:52.797Z,1005.27
2022-12-28T02:23:52.797Z,1005.26
2022-12-28T02:25:11.380Z,1005.26
2022-12-28T02:25:53.757Z,1005.24
2022-12-28T02:26:52.741Z,1005.24
2022-12-28T02:27:52.736Z,1005.26
2022-12-28T02:28:52.747Z,1005.20
2022-12-28T02:29:52.698Z,1005.18
2022-12-28T02:30:52.757Z,1005.17
2022-12-28T02:31:52.678Z,1005.14
2022-12-28T02:32:52.656Z,1005.16
2022-12-28T02:33:52.668Z,1005.17
2022-12-28T02:34:52.637Z,1005.23
2022-12-28T02:35:52.631Z,1005.22
2022-12-28T02:36:52.664Z,1005.22
2022-12-28T02:37:52.597Z,1005.22
2022-12-28T02:38:52.576Z,1005.24
2022-12-28T02:39:52.587Z,1005.25
2022-12-28T02:40:52.556Z,1005.25
2022-12-28T02:41:52.546Z,1005.18
2022-12-28T02:42:52.530Z,1005.19
2022-12-28T02:43:52.518Z,1005.20
2022-12-28T02:44:52.537Z,1005.19
2022-12-28T02:45:52.538Z,1005.14
2022-12-28T02:46:52.478Z,1005.10
2022-12-28T02:47:52.470Z,1005.12
2022-12-28T02:48:52.455Z,1005.08
2022-12-28T02:49:52.458Z,1005.06
2022-12-28T02:50:52.416Z,1005.05
2022-12-28T02:51:52.417Z,1005.04
2022-12-28T02:52:52.395Z,1005.10
2022-12-28T02:53:52.395Z,1005.08
2022-12-28T02:54:52.399Z,1005.10
2022-12-28T02:55:52.364Z,1005.12
2022-12-28T02:56:52.354Z,1005.09
2022-12-28T02:57:52.340Z,1005.13
2022-12-28T02:58:52.325Z,1005.08
2022-12-28T02:59:52.449Z,1005.04
2022-12-28T03:00:52.297Z,1005.01
2022-12-28T03:01:52.458Z,1005.01
2022-12-28T03:02:52.381Z,1004.94
2022-12-28T03:03:52.254Z,1004.93
2022-12-28T03:04:52.263Z,1004.89
2022-12-28T03:05:52.225Z,1004.86
2022-12-28T03:06:52.232Z,1004.86
2022-12-28T03:07:52.212Z,1004.86
2022-12-28T03:08:52.186Z,1004.82
2022-12-28T03:09:52.173Z,1004.81
2022-12-28T03:10:52.177Z,1004.79
2022-12-28T03:11:52.163Z,1004.75
2022-12-28T03:12:52.142Z,1004.76
2022-12-28T03:13:52.123Z,1004.74
2022-12-28T03:14:52.114Z,1004.71
2022-12-28T03:15:52.166Z,1004.70
2022-12-28T03:16:52.084Z,1004.70
2022-12-28T03:17:52.073Z,1004.70
2022-12-28T03:18:52.063Z,1004.68
2022-12-28T03:19:52.049Z,1004.66
2022-12-28T03:20:52.059Z,1004.60
2022-12-28T03:21:52.013Z,1004.56
2022-12-28T03:22:52.005Z,1004.55
2022-12-28T03:23:51.994Z,1004.53
2022-12-28T03:24:51.985Z,1004.53
2022-12-28T03:25:51.984Z,1004.54
2022-12-28T03:26:51.947Z,1004.49
2022-12-28T03:27:51.934Z,1004.46
2022-12-28T03:28:51.925Z,1004.44
2022-12-28T03:29:51.902Z,1004.43
2022-12-28T03:30:51.971Z,1004.44
2022-12-28T03:31:51.886Z,1004.41
2022-12-28T03:32:51.873Z,1004.39
2022-12-28T03:33:51.863Z,1004.42
2022-12-28T03:34:51.846Z,1004.39
2022-12-28T03:35:51.848Z,1004.35
2022-12-28T03:36:51.837Z,1004.31
2022-12-28T03:37:51.805Z,1004.36
2022-12-28T03:38:51.802Z,1004.28
2022-12-28T03:39:51.786Z,1004.31
2022-12-28T03:40:51.784Z,1004.32
2022-12-28T03:41:51.753Z,1004.25
2022-12-28T03:42:51.744Z,1004.26
2022-12-28T03:43:51.726Z,1004.23
2022-12-28T03:44:51.713Z,1004.23
2022-12-28T03:45:51.731Z,1004.15
2022-12-28T03:46:51.693Z,1004.14
2022-12-28T03:47:51.701Z,1004.13
2022-12-28T03:48:51.703Z,1004.16
2022-12-28T03:49:51.676Z,1004.12
2022-12-28T03:50:51.674Z,1004.12
2022-12-28T03:51:51.629Z,1004.09
2022-12-28T03:52:51.613Z,1004.05
2022-12-28T03:53:51.607Z,1004.01
2022-12-28T03:54:51.584Z,1003.96
2022-12-28T03:55:51.625Z,1003.93
2022-12-28T03:56:51.564Z,1003.92
2022-12-28T03:57:51.565Z,1003.88
2022-12-28T03:58:51.564Z,1003.89
2022-12-28T03:59:51.536Z,1003.89
2022-12-28T04:00:51.542Z,1003.89
2022-12-28T04:01:51.591Z,1003.87
2022-12-28T04:02:51.574Z,1003.88
2022-12-28T04:03:51.466Z,1003.86
2022-12-28T04:04:51.454Z,1003.84
2022-12-28T04:05:51.436Z,1003.84
2022-12-28T04:06:51.447Z,1003.87
2022-12-28T04:07:51.418Z,1003.84
2022-12-28T04:08:51.416Z,1003.80
2022-12-28T04:09:51.392Z,1003.74
2022-12-28T04:10:51.374Z,1003.77
2022-12-28T04:11:51.373Z,1003.75
2022-12-28T04:12:51.345Z,1003.77
2022-12-28T04:13:51.333Z,1003.75
2022-12-28T04:14:51.333Z,1003.75
2022-12-28T04:15:51.313Z,1003.72
2022-12-28T04:16:51.315Z,1003.74
2022-12-28T04:17:51.292Z,1003.75
2022-12-28T04:18:51.282Z,1003.76
2022-12-28T04:19:51.252Z,1003.79
2022-12-28T04:20:51.247Z,1003.76
2022-12-28T04:21:51.243Z,1003.72
2022-12-28T04:22:51.214Z,1003.73
2022-12-28T04:23:51.206Z,1003.74
2022-12-28T04:24:51.195Z,1003.68
2022-12-28T04:25:51.172Z,1003.70
2022-12-28T04:26:51.182Z,1003.65
2022-12-28T04:27:51.152Z,1003.69
2022-12-28T04:28:51.134Z,1003.69
2022-12-28T04:29:51.126Z,1003.63
2022-12-28T04:30:51.150Z,1003.65
2022-12-28T04:31:51.120Z,1003.64
2022-12-28T04:32:51.093Z,1003.58
2022-12-28T04:33:51.072Z,1003.60
2022-12-28T04:34:51.062Z,1003.55
2022-12-28T04:35:51.042Z,1003.53
2022-12-28T04:36:51.044Z,1003.50
2022-12-28T04:37:51.018Z,1003.49
2022-12-28T04:38:51.002Z,1003.49
2022-12-28T04:39:55.145Z,1003.42
2022-12-28T04:40:51.975Z,1003.42
2022-12-28T04:41:50.989Z,1003.41
2022-12-28T04:42:50.969Z,1003.38
2022-12-28T04:43:50.943Z,1003.42
2022-12-28T04:44:50.924Z,1003.40
2022-12-28T04:45:50.925Z,1003.41
2022-12-28T04:46:50.954Z,1003.38
2022-12-28T04:47:50.899Z,1003.38
2022-12-28T04:48:50.879Z,1003.39
2022-12-28T04:49:50.862Z,1003.37
2022-12-28T04:50:50.846Z,1003.33
2022-12-28T04:51:50.872Z,1003.34
2022-12-28T04:52:50.822Z,1003.31
2022-12-28T04:53:50.808Z,1003.32
2022-12-28T04:54:50.809Z,1003.29
2022-12-28T04:55:50.790Z,1003.30
2022-12-28T04:56:50.792Z,1003.30
2022-12-28T04:57:50.752Z,1003.31
2022-12-28T04:58:50.740Z,1003.31
2022-12-28T04:59:50.721Z,1003.22
2022-12-28T05:00:50.804Z,1003.25
2022-12-28T05:01:50.836Z,1003.23
2022-12-28T05:02:50.782Z,1003.23
2022-12-28T05:03:55.517Z,1003.20
2022-12-28T05:04:51.664Z,1003.17
2022-12-28T05:05:50.668Z,1003.20
2022-12-28T05:06:50.655Z,1003.20
2022-12-28T05:07:50.633Z,1003.14
2022-12-28T05:08:50.612Z,1003.17
2022-12-28T05:09:50.602Z,1003.15
2022-12-28T05:10:50.582Z,1003.15
2022-12-28T05:11:50.601Z,1003.11
2022-12-28T05:12:50.556Z,1003.08
2022-12-28T05:13:50.585Z,1003.07
2022-12-28T05:14:50.532Z,1003.09
2022-12-28T05:15:50.578Z,1003.07
2022-12-28T05:16:50.533Z,1003.06
2022-12-28T05:17:50.494Z,1003.05
2022-12-28T05:18:50.502Z,1003.04
2022-12-28T05:19:50.471Z,1003.04
2022-12-28T05:20:50.452Z,1003.01
2022-12-28T05:21:50.472Z,1003.01
2022-12-28T05:22:50.434Z,1003.02
2022-12-28T05:23:50.412Z,1002.99
2022-12-28T05:24:50.402Z,1002.93
2022-12-28T05:25:50.388Z,1002.97
2022-12-28T05:26:50.403Z,1002.97
2022-12-28T05:27:50.381Z,1002.95
2022-12-28T05:28:50.354Z,1002.94
2022-12-28T05:29:50.338Z,1002.89
2022-12-28T05:30:50.335Z,1002.86
2022-12-28T05:31:50.375Z,1002.83
2022-12-28T05:32:50.305Z,1002.81
2022-12-28T05:33:50.320Z,1002.79
2022-12-28T05:34:50.280Z,1002.79
2022-12-28T05:35:50.267Z,1002.76
2022-12-28T05:36:50.265Z,1002.73
2022-12-28T05:37:50.222Z,1002.73
2022-12-28T05:38:50.218Z,1002.71
2022-12-28T05:39:50.201Z,1002.73
2022-12-28T05:40:50.186Z,1002.76
2022-12-28T05:41:50.189Z,1002.77
2022-12-28T05:42:51.776Z,1002.76
2022-12-28T05:43:50.206Z,1002.78
2022-12-28T05:44:50.132Z,1002.82
2022-12-28T05:45:50.130Z,1002.79
2022-12-28T05:46:50.160Z,1002.74
2022-12-28T05:47:50.121Z,1002.78
2022-12-28T05:48:50.092Z,1002.72
2022-12-28T05:49:50.081Z,1002.72
2022-12-28T05:50:50.073Z,1002.77
2022-12-28T05:51:50.069Z,1002.72
2022-12-28T05:52:50.042Z,1002.68
2022-12-28T05:53:50.037Z,1002.62
2022-12-28T05:54:50.003Z,1002.60
2022-12-28T05:55:50.000Z,1002.60
2022-12-28T05:56:49.983Z,1002.62
2022-12-28T05:57:50.002Z,1002.60
2022-12-28T05:58:49.961Z,1002.57
2022-12-28T05:59:49.950Z,1002.60
2022-12-28T06:00:49.922Z,1002.61
2022-12-28T06:01:50.114Z,1002.59
2022-12-28T06:02:50.000Z,1002.56
2022-12-28T06:03:49.901Z,1002.57
2022-12-28T06:04:49.902Z,1002.58
2022-12-28T06:05:49.900Z,1002.53
2022-12-28T06:06:57.054Z,1002.59
2022-12-28T06:07:49.875Z,1002.54
2022-12-28T06:08:49.838Z,1002.56
2022-12-28T06:09:49.841Z,1002.54
2022-12-28T06:10:49.804Z,1002.53
2022-12-28T06:11:49.802Z,1002.54
2022-12-28T06:12:49.795Z,1002.53
2022-12-28T06:13:49.776Z,1002.54
2022-12-28T06:14:49.758Z,1002.57
2022-12-28T06:15:49.753Z,1002.52
2022-12-28T06:16:49.781Z,1002.52
2022-12-28T06:17:49.721Z,1002.50
2022-12-28T06:18:49.733Z,1002.51
2022-12-28T06:19:49.693Z,1002.51
2022-12-28T06:20:55.269Z,1002.56
2022-12-28T06:21:50.662Z,1002.52
2022-12-28T06:22:49.626Z,1002.49
2022-12-28T06:23:49.653Z,1002.45
2022-12-28T06:24:49.611Z,1002.50
2022-12-28T06:25:49.663Z,1002.51
2022-12-28T06:26:51.162Z,1002.48
2022-12-28T06:27:49.584Z,1002.47
2022-12-28T06:28:49.572Z,1002.40
2022-12-28T06:29:49.561Z,1002.40
2022-12-28T06:30:52.841Z,1002.37
2022-12-28T06:31:49.634Z,1002.39
2022-12-28T06:32:49.513Z,1002.42
2022-12-28T06:33:49.534Z,1002.39
2022-12-28T06:34:49.490Z,1002.37
2022-12-28T06:35:49.484Z,1002.33
2022-12-28T06:36:49.461Z,1002.34
2022-12-28T06:37:49.453Z,1002.33
2022-12-28T06:38:49.479Z,1002.28
2022-12-28T06:39:49.439Z,1002.25
2022-12-28T06:41:12.344Z,1002.23
2022-12-28T06:41:50.413Z,1002.27
2022-12-28T06:42:49.413Z,1002.23
2022-12-28T06:43:49.412Z,1002.19
2022-12-28T06:44:49.366Z,1002.23
2022-12-28T06:45:49.416Z,1002.23
2022-12-28T06:46:49.341Z,1002.19
2022-12-28T06:47:49.332Z,1002.24
2022-12-28T06:48:49.338Z,1002.23
2022-12-28T06:49:49.303Z,1002.29
2022-12-28T06:50:49.273Z,1002.27
2022-12-28T06:51:49.282Z,1002.30
2022-12-28T06:52:49.272Z,1002.28
2022-12-28T06:53:49.273Z,1002.29
2022-12-28T06:54:49.233Z,1002.24
2022-12-28T06:55:49.227Z,1002.26
2022-12-28T06:56:49.206Z,1002.23
2022-12-28T06:57:49.190Z,1002.20
2022-12-28T06:58:49.194Z,1002.23
2022-12-28T06:59:49.171Z,1002.17
2022-12-28T07:00:49.203Z,1002.19
2022-12-28T07:01:49.267Z,1002.21
2022-12-28T07:02:49.185Z,1002.18
2022-12-28T07:03:49.130Z,1002.13
2022-12-28T07:04:49.091Z,1002.10
2022-12-28T07:05:49.102Z,1002.12
2022-12-28T07:06:49.077Z,1002.12
2022-12-28T07:07:49.079Z,1002.14
2022-12-28T07:08:49.050Z,1002.17
2022-12-28T07:09:49.051Z,1002.20
2022-12-28T07:10:49.030Z,1002.24
2022-12-28T07:11:49.009Z,1002.22
2022-12-28T07:12:48.994Z,1002.26
2022-12-28T07:13:49.018Z,1002.21
2022-12-28T07:14:48.982Z,1002.17
2022-12-28T07:15:49.012Z,1002.18
2022-12-28T07:16:48.953Z,1002.13
2022-12-28T07:17:48.936Z,1002.18
2022-12-28T07:18:48.910Z,1002.15
2022-12-28T07:19:48.919Z,1002.13
2022-12-28T07:20:48.882Z,1002.11
2022-12-28T07:21:48.872Z,1002.12
2022-12-28T07:22:48.863Z,1002.11
2022-12-28T07:23:48.873Z,1002.12
2022-12-28T07:24:48.852Z,1002.11
2022-12-28T07:25:48.827Z,1002.08
2022-12-28T07:26:48.811Z,1002.09
2022-12-28T07:27:48.836Z,1002.07
2022-12-28T07:28:48.781Z,1002.08
2022-12-28T07:29:48.789Z,1002.10
2022-12-28T07:30:48.804Z,1002.05
2022-12-28T07:31:48.766Z,1002.05
2022-12-28T07:32:48.735Z,1001.98
2022-12-28T07:33:48.735Z,1002.00
2022-12-28T07:34:48.769Z,1002.01
2022-12-28T07:35:48.682Z,1001.96
2022-12-28T07:36:48.668Z,1001.98
2022-12-28T07:37:48.672Z,1001.98
2022-12-28T07:38:48.649Z,1001.97
2022-12-28T07:39:48.673Z,1001.95
2022-12-28T07:40:48.622Z,1001.90
2022-12-28T07:41:48.635Z,1001.90
2022-12-28T07:42:48.605Z,1001.91
2022-12-28T07:43:48.605Z,1001.85
2022-12-28T07:44:49.337Z,1001.90
2022-12-28T07:45:48.591Z,1001.89
2022-12-28T07:46:48.548Z,1001.90
2022-12-28T07:47:48.541Z,1001.85
2022-12-28T07:48:48.521Z,1001.87
2022-12-28T07:49:48.519Z,1001.92
2022-12-28T07:50:48.490Z,1001.89
2022-12-28T07:51:48.479Z,1001.87
2022-12-28T07:52:48.500Z,1001.85
2022-12-28T07:53:48.487Z,1001.85
2022-12-28T07:54:48.450Z,1001.82
2022-12-28T07:55:48.438Z,1001.82
2022-12-28T07:56:48.429Z,1001.85
2022-12-28T07:57:48.411Z,1001.81
2022-12-28T07:59:19.195Z,1001.85
2022-12-28T08:00:19.179Z,1001.87
2022-12-28T08:01:19.229Z,1001.84
2022-12-28T08:02:19.206Z,1001.85
2022-12-28T08:03:19.146Z,1001.83
2022-12-28T08:04:19.176Z,1001.82
2022-12-28T08:05:19.128Z,1001.84
2022-12-28T08:06:19.089Z,1001.82
2022-12-28T08:07:19.075Z,1001.78
2022-12-28T08:08:19.157Z,1001.77
2022-12-28T08:09:19.047Z,1001.75
2022-12-28T08:10:19.095Z,1001.79
2022-12-28T08:11:19.019Z,1001.79
2022-12-28T08:12:19.017Z,1001.77
2022-12-28T08:13:18.996Z,1001.84
2022-12-28T08:14:19.007Z,1001.87
2022-12-28T08:15:18.992Z,1001.87
2022-12-28T08:16:19.006Z,1001.90
2022-12-28T08:17:21.237Z,1001.93
2022-12-28T08:18:18.925Z,1001.90
2022-12-28T08:19:18.924Z,1001.86
2022-12-28T08:20:18.925Z,1001.89
2022-12-28T08:21:18.906Z,1001.90
2022-12-28T08:22:18.895Z,1001.90
2022-12-28T08:23:18.900Z,1001.87
2022-12-28T08:24:18.876Z,1001.86
2022-12-28T08:25:18.855Z,1001.84
2022-12-28T08:26:18.838Z,1001.77
2022-12-28T08:27:18.821Z,1001.80
2022-12-28T08:28:18.808Z,1001.78
2022-12-28T08:29:18.802Z,1001.80
2022-12-28T08:30:18.820Z,1001.81
2022-12-28T08:31:18.834Z,1001.81
2022-12-28T08:32:18.797Z,1001.78
2022-12-28T08:33:18.757Z,1001.76
2022-12-28T08:34:18.740Z,1001.74
2022-12-28T08:35:18.713Z,1001.72
2022-12-28T08:36:18.723Z,1001.76
2022-12-28T08:37:18.684Z,1001.78
2022-12-28T08:38:18.674Z,1001.75
2022-12-28T08:39:18.655Z,1001.78
2022-12-28T08:40:18.653Z,1001.79
2022-12-28T08:41:18.655Z,1001.70
2022-12-28T08:42:18.635Z,1001.73
2022-12-28T08:43:18.610Z,1001.83
2022-12-28T08:44:18.837Z,1001.78
2022-12-28T08:45:18.574Z,1001.75
2022-12-28T08:46:18.741Z,1001.77
2022-12-28T08:47:18.597Z,1001.81
2022-12-28T08:48:18.536Z,1001.72
2022-12-28T08:49:18.526Z,1001.76
2022-12-28T08:50:20.395Z,1001.75
2022-12-28T08:51:18.515Z,1001.75
2022-12-28T08:52:18.486Z,1001.77
2022-12-28T08:53:18.475Z,1001.81
2022-12-28T08:54:18.465Z,1001.81
2022-12-28T08:55:18.449Z,1001.80
2022-12-28T08:56:18.455Z,1001.81
2022-12-28T08:57:18.426Z,1001.79
2022-12-28T08:58:18.407Z,1001.76
2022-12-28T08:59:18.400Z,1001.77
2022-12-28T09:00:18.389Z,1001.81
2022-12-28T09:01:18.533Z,1001.77
2022-12-28T09:02:18.458Z,1001.78
2022-12-28T09:03:18.415Z,1001.76
2022-12-28T09:04:18.358Z,1001.76
2022-12-28T09:05:18.323Z,1001.75
2022-12-28T09:06:18.323Z,1001.79
2022-12-28T09:07:18.286Z,1001.76
2022-12-28T09:08:18.276Z,1001.74
2022-12-28T09:09:18.265Z,1001.76
2022-12-28T09:10:18.297Z,1001.78
2022-12-28T09:11:18.257Z,1001.74
2022-12-28T09:12:18.248Z,1001.69
2022-12-28T09:13:18.215Z,1001.70
2022-12-28T09:14:23.666Z,1001.65
2022-12-28T09:15:19.186Z,1001.77
2022-12-28T09:16:18.242Z,1001.70
2022-12-28T09:17:18.164Z,1001.70
2022-12-28T09:18:18.145Z,1001.66
2022-12-28T09:19:18.134Z,1001.69
2022-12-28T09:20:18.135Z,1001.69
2022-12-28T09:21:18.126Z,1001.67
2022-12-28T09:22:18.105Z,1001.67
2022-12-28T09:23:18.087Z,1001.66
2022-12-28T09:24:18.066Z,1001.72
2022-12-28T09:25:18.058Z,1001.72
2022-12-28T09:26:18.077Z,1001.72
2022-12-28T09:27:18.035Z,1001.73
2022-12-28T09:28:18.024Z,1001.80
2022-12-28T09:29:18.013Z,1001.79
2022-12-28T09:30:17.997Z,1001.81
2022-12-28T09:31:18.021Z,1001.76
2022-12-28T09:32:17.975Z,1001.71
2022-12-28T09:33:17.946Z,1001.67
2022-12-28T09:35:18.927Z,1001.74
2022-12-28T09:36:17.936Z,1001.71
2022-12-28T09:37:17.897Z,1001.73
2022-12-28T09:38:17.895Z,1001.70
2022-12-28T09:39:18.200Z,1001.71
2022-12-28T09:40:17.865Z,1001.73
2022-12-28T09:41:17.874Z,1001.74
2022-12-28T09:42:17.850Z,1001.70
2022-12-28T09:43:17.843Z,1001.74
2022-12-28T09:44:17.815Z,1001.73
2022-12-28T09:45:17.812Z,1001.70
2022-12-28T09:46:17.884Z,1001.65
2022-12-28T09:47:17.775Z,1001.69
2022-12-28T09:48:17.766Z,1001.69
2022-12-28T09:49:17.746Z,1001.75
2022-12-28T09:50:17.724Z,1001.76
2022-12-28T09:51:17.769Z,1001.77
2022-12-28T09:52:17.695Z,1001.71
2022-12-28T09:53:17.687Z,1001.64
2022-12-28T09:54:17.675Z,1001.63
2022-12-28T09:55:17.654Z,1001.60
2022-12-28T09:56:17.663Z,1001.65
2022-12-28T09:57:17.637Z,1001.70
2022-12-28T09:58:17.625Z,1001.63
2022-12-28T09:59:17.603Z,1001.64
2022-12-28T10:00:17.592Z,1001.66
2022-12-28T10:01:17.746Z,1001.67
2022-12-28T10:02:17.629Z,1001.66
2022-12-28T10:03:17.637Z,1001.64
2022-12-28T10:04:17.559Z,1001.56
2022-12-28T10:05:17.524Z,1001.61
2022-12-28T10:06:17.523Z,1001.60
2022-12-28T10:07:17.526Z,1001.63
2022-12-28T10:08:17.549Z,1001.64
2022-12-28T10:09:17.477Z,1001.61
2022-12-28T10:10:17.522Z,1001.61
2022-12-28T10:11:17.453Z,1001.62
2022-12-28T10:12:17.455Z,1001.58
2022-12-28T10:13:45.406Z,1001.57
2022-12-28T10:14:18.425Z,1001.53
2022-12-28T10:15:17.409Z,1001.56
2022-12-28T10:16:17.411Z,1001.55
2022-12-28T10:17:17.391Z,1001.56
2022-12-28T10:18:17.365Z,1001.56
2022-12-28T10:19:17.353Z,1001.56
2022-12-28T10:20:17.344Z,1001.52
2022-12-28T10:21:17.319Z,1001.49
2022-12-28T10:22:17.336Z,1001.53
2022-12-28T10:23:17.294Z,1001.52
2022-12-28T10:24:33.201Z,1001.48
2022-12-28T10:25:18.293Z,1001.45
2022-12-28T10:26:17.257Z,1001.48
2022-12-28T10:27:17.256Z,1001.49
2022-12-28T10:28:17.238Z,1001.49
2022-12-28T10:29:17.225Z,1001.44
2022-12-28T10:30:17.205Z,1001.44
2022-12-28T10:31:17.197Z,1001.41
2022-12-28T10:32:17.196Z,1001.41
2022-12-28T10:33:17.182Z,1001.32
2022-12-28T10:34:17.643Z,1001.35
2022-12-28T10:35:17.138Z,1001.30
2022-12-28T10:36:17.132Z,1001.33
2022-12-28T10:37:17.176Z,1001.31
2022-12-28T10:38:17.112Z,1001.28
2022-12-28T10:39:17.085Z,1001.23
2022-12-28T10:40:17.064Z,1001.23
2022-12-28T10:41:17.208Z,1001.31
2022-12-28T10:42:17.057Z,1001.19
2022-12-28T10:43:17.028Z,1001.24
2022-12-28T10:45:18.013Z,1001.23
2022-12-28T10:46:17.068Z,1001.29
2022-12-28T10:47:17.075Z,1001.23
2022-12-28T10:48:16.999Z,1001.26
2022-12-28T10:49:16.962Z,1001.22
2022-12-28T10:50:45.856Z,1001.22
2022-12-28T10:51:17.925Z,1001.14
2022-12-28T10:52:16.947Z,1001.21
2022-12-28T10:53:16.900Z,1001.18
2022-12-28T10:54:16.896Z,1001.20
2022-12-28T10:55:17.877Z,1001.11
2022-12-28T10:56:17.593Z,1001.15
2022-12-28T10:57:16.895Z,1001.06
2022-12-28T10:58:33.874Z,1001.10
2022-12-28T10:59:17.895Z,1001.15
2022-12-28T11:00:16.816Z,1001.07
2022-12-28T11:01:17.890Z,1001.02
2022-12-28T11:02:17.072Z,1001.01
2022-12-28T11:03:16.790Z,1000.97
2022-12-28T11:04:16.776Z,1001.01
2022-12-28T11:05:16.749Z,1001.03
2022-12-28T11:06:19.941Z,1000.98
2022-12-28T11:07:17.736Z,1000.96
2022-12-28T11:08:16.714Z,1000.95
2022-12-28T11:09:16.713Z,1000.94
2022-12-28T11:10:16.753Z,1000.95
2022-12-28T11:11:16.665Z,1000.91
2022-12-28T11:12:16.653Z,1000.90
2022-12-28T11:13:21.617Z,1000.90
2022-12-28T11:14:17.634Z,1000.83
2022-12-28T11:15:16.624Z,1000.80
2022-12-28T11:16:16.681Z,1000.77
2022-12-28T11:17:16.587Z,1000.77
2022-12-28T11:18:16.636Z,1000.78
2022-12-28T11:19:16.592Z,1000.82
2022-12-28T11:20:16.641Z,1000.80
2022-12-28T11:21:16.534Z,1000.75
2022-12-28T11:22:16.519Z,1000.77
2022-12-28T11:23:16.535Z,1000.76
2022-12-28T11:24:16.513Z,1000.75
2022-12-28T11:25:16.523Z,1000.67
2022-12-28T11:26:16.534Z,1000.64
2022-12-28T11:27:16.494Z,1000.59
2022-12-28T11:28:16.542Z,1000.61
2022-12-28T11:29:16.478Z,1000.66
2022-12-28T11:30:17.696Z,1000.58
2022-12-28T11:31:16.482Z,1000.59
2022-12-28T11:32:16.448Z,1000.55
2022-12-28T11:33:16.456Z,1000.50
2022-12-28T11:34:16.376Z,1000.53
2022-12-28T11:35:16.418Z,1000.49
2022-12-28T11:36:16.336Z,1000.50
2022-12-28T11:37:16.342Z,1000.48
2022-12-28T11:38:16.325Z,1000.47
2022-12-28T11:39:16.286Z,1000.47
2022-12-28T11:40:16.362Z,1000.42
2022-12-28T11:41:16.267Z,1000.44
2022-12-28T11:42:46.139Z,1000.40
2022-12-28T11:43:17.288Z,1000.30
2022-12-28T11:44:16.235Z,1000.26
2022-12-28T11:45:16.216Z,1000.27
2022-12-28T11:46:16.281Z,1000.23
2022-12-28T11:47:16.237Z,1000.20
2022-12-28T11:48:16.196Z,1000.18
2022-12-28T11:49:16.167Z,1000.13
2022-12-28T11:50:16.159Z,1000.17
2022-12-28T11:51:16.151Z,1000.16
2022-12-28T11:52:16.143Z,1000.12
2022-12-28T11:53:16.156Z,1000.10
2022-12-28T11:54:16.137Z,1000.11
2022-12-28T11:55:16.085Z,1000.15
2022-12-28T11:56:16.080Z,1000.16
2022-12-28T11:57:16.058Z,1000.05
2022-12-28T11:58:16.051Z,1000.10
2022-12-28T11:59:16.037Z,1000.07
2022-12-28T12:00:21.790Z,1000.07
2022-12-28T12:01:17.110Z,1000.09
2022-12-28T12:02:16.029Z,1000.09
2022-12-28T12:03:15.997Z,1000.03
2022-12-28T12:04:15.976Z,1000.08
2022-12-28T12:05:15.990Z,1000.09
2022-12-28T12:06:15.935Z,1000.10
2022-12-28T12:07:27.639Z,1000.07
2022-12-28T12:08:17.096Z,1000.04